Hauptseite
METAR-TAF:

METAR-TAF

Flughäfen :

Flughafen Valence-Chabeuil

Valence, Frankreich

Breite: 44-54-58N, Länge: 4-58-06E, Höhe: 160 m

Beobachtung

Neuester Wetterbericht von vor 44 Minuten, um 10:00 UTC
Wind 33 kt aus Süd, Böen bis zu 47 kt
Temperatur 19°C
Luftfeuchtigkeit 37%
Luftdruck 1007 hPa
Sichtweite 10 km oder mehr
keine Wolken unter 1500 m und keine Kumulonimbus oder Gewitterwolken

METAR: LFLU 251000Z AUTO 18033G47KT CAVOK 19/04 Q1007

Zeit: 12:44 (10:44 UTC)


TAF: fehlend

Wetterbeobachtungen und Prognosen von mehr als 4000 Flughäfen (METAR und TAF Bericht).

Die verfügbaren Stationen werden durch gelbe und rote Markierungen auf der Karte dargestellt.

Führen Sie die Maus auf sie, um den Namen der Station zu sehen.

Darauf klicken, um die Beobachtung von Wetterbeobachtungen und Prognosen zu sehen.

Um die Karte zu ändern : klicken Sie auf den grünen Tasten mit einem schwarzen Kreuz Zum Vergrößern, auf den grünen Button mit einem Gedankenstrich zu verkleinern, oder auf die grünen Pfeile für benachbarte Karten.


METAR-TAF: